Terminal Aerodrome Forecast
Issued by NWS

Home | Current Version | Previous Version | Graphics & Text | Print | Product List | Glossary Off
Versions: 1 2 3 4 5 6 7 8 9 10 11 12 13 14 15 16 17

000
FTUS43 KUNR 040810 AAA
TAFGCC
TAF AMD
KGCC 040810Z 0408/0506 28012KT P6SM BKN080
      TEMPO 0408/0410 3SM -SN BKN035
     FM041400 22010KT P6SM BKN150=

USA.gov is the U.S. government's official web portal to all federal, state and local government web resources and services.